createdAt,value
2019-02-04T00:01:56.192Z,182.80
2019-02-04T00:04:22.472Z,133.73
2019-02-04T00:06:48.742Z,103.73
2019-02-04T00:09:15.012Z,109.73
2019-02-04T00:11:41.190Z,100.87
2019-02-04T00:14:07.865Z,106.47
2019-02-04T00:16:40.556Z,99.17
2019-02-04T00:19:02.343Z,98.80
2019-02-04T00:21:28.611Z,75.80
2019-02-04T00:23:54.885Z,81.57
2019-02-04T00:26:21.168Z,66.37
2019-02-04T00:28:47.495Z,55.33
2019-02-04T00:31:13.821Z,54.17
2019-02-04T00:33:40.007Z,54.20
2019-02-04T00:36:06.284Z,46.27
2019-02-04T00:38:32.574Z,48.13
2019-02-04T00:40:58.838Z,44.73
2019-02-04T00:43:25.132Z,50.73
2019-02-04T00:45:51.437Z,53.53
2019-02-04T00:48:17.743Z,48.97
2019-02-04T00:50:44.229Z,44.90
2019-02-04T00:53:10.501Z,48.83
2019-02-04T00:55:36.780Z,44.37
2019-02-04T00:58:03.044Z,45.45
2019-02-04T01:00:30.046Z,48.73
2019-02-04T01:02:56.329Z,41.83
2019-02-04T01:05:22.631Z,51.25
2019-02-04T01:07:48.924Z,43.23
2019-02-04T01:10:18.805Z,50.17
2019-02-04T01:12:45.089Z,51.53
2019-02-04T01:15:11.144Z,43.17
2019-02-04T01:17:37.419Z,38.80
2019-02-04T01:20:06.907Z,46.27
2019-02-04T01:22:33.181Z,38.33
2019-02-04T01:24:59.446Z,45.40
2019-02-04T01:27:26.103Z,48.33
2019-02-04T01:29:52.272Z,44.15
2019-02-04T01:32:18.333Z,42.80
2019-02-04T01:34:44.558Z,48.00
2019-02-04T01:37:10.621Z,54.60
2019-02-04T01:39:36.596Z,64.13
2019-02-04T01:42:02.728Z,62.70
2019-02-04T01:44:28.884Z,84.57
2019-02-04T01:46:55.053Z,88.20
2019-02-04T01:49:21.105Z,82.37
2019-02-04T01:51:47.288Z,86.67
2019-02-04T01:54:13.451Z,99.37
2019-02-04T01:56:39.738Z,94.47
2019-02-04T01:59:05.781Z,92.57
2019-02-04T02:01:31.938Z,88.47
2019-02-04T02:03:57.996Z,92.77
2019-02-04T02:06:23.947Z,111.27
2019-02-04T02:08:50.005Z,113.33
2019-02-04T02:11:16.071Z,113.10
2019-02-04T02:13:42.131Z,107.93
2019-02-04T02:16:08.188Z,98.37
2019-02-04T02:18:34.449Z,98.17
2019-02-04T02:21:00.597Z,99.07
2019-02-04T02:23:26.953Z,112.27
2019-02-04T02:25:53.000Z,103.20
2019-02-04T02:28:19.060Z,123.33
2019-02-04T02:30:45.214Z,105.50
2019-02-04T02:33:11.262Z,104.40
2019-02-04T02:35:37.439Z,103.00
2019-02-04T02:38:03.616Z,110.50
2019-02-04T02:40:31.197Z,108.47
2019-02-04T02:42:57.770Z,105.63
2019-02-04T02:45:24.029Z,94.30
2019-02-04T02:47:50.084Z,86.97
2019-02-04T02:50:16.131Z,91.93
2019-02-04T02:52:42.189Z,94.77
2019-02-04T02:55:10.930Z,92.83
2019-02-04T02:57:36.972Z,99.70
2019-02-04T03:00:09.338Z,106.83
2019-02-04T03:02:35.490Z,80.80
2019-02-04T03:05:01.457Z,80.87
2019-02-04T03:07:27.518Z,93.97
2019-02-04T03:09:53.612Z,89.77
2019-02-04T03:12:19.660Z,85.57
2019-02-04T03:14:45.712Z,94.53
2019-02-04T03:17:11.761Z,109.27
2019-02-04T03:19:38.137Z,97.17
2019-02-04T03:22:04.186Z,97.97
2019-02-04T03:24:30.247Z,90.57
2019-02-04T03:26:56.409Z,81.10
2019-02-04T03:29:22.468Z,89.43
2019-02-04T03:31:48.607Z,75.40
2019-02-04T03:34:14.561Z,85.40
2019-02-04T03:36:40.624Z,93.07
2019-02-04T03:39:07.166Z,92.10
2019-02-04T03:41:33.336Z,82.60
2019-02-04T03:43:59.474Z,76.17
2019-02-04T03:46:25.753Z,66.97
2019-02-04T03:48:51.802Z,65.03
2019-02-04T03:51:17.861Z,69.37
2019-02-04T03:53:43.802Z,71.20
2019-02-04T03:56:09.875Z,65.93
2019-02-04T03:58:35.925Z,79.63
2019-02-04T04:01:01.987Z,76.87
2019-02-04T04:03:28.334Z,76.63
2019-02-04T04:05:54.497Z,78.53
2019-02-04T04:08:20.532Z,71.47
2019-02-04T04:10:46.598Z,55.37
2019-02-04T04:13:12.745Z,59.70
2019-02-04T04:15:39.188Z,78.73
2019-02-04T04:18:15.577Z,82.17
2019-02-04T04:20:33.318Z,73.13
2019-02-04T04:22:59.470Z,72.83
2019-02-04T04:25:27.339Z,88.20
2019-02-04T04:27:53.291Z,87.27
2019-02-04T04:30:39.364Z,82.60
2019-02-04T04:33:05.541Z,86.57
2019-02-04T04:35:31.621Z,80.27
2019-02-04T04:37:57.557Z,87.07
2019-02-04T04:40:23.621Z,87.17
2019-02-04T04:42:49.978Z,83.90
2019-02-04T04:45:23.947Z,74.93
2019-02-04T04:47:50.304Z,78.97
2019-02-04T04:50:16.362Z,102.00
2019-02-04T04:52:42.429Z,82.57
2019-02-04T04:55:15.051Z,70.47
2019-02-04T04:57:41.248Z,73.10
2019-02-04T05:00:10.928Z,110.03
2019-02-04T05:02:37.619Z,80.57
2019-02-04T05:05:06.696Z,81.20
2019-02-04T05:07:32.860Z,67.53
2019-02-04T05:09:59.012Z,62.70
2019-02-04T05:12:25.076Z,68.90
2019-02-04T05:14:51.327Z,72.23
2019-02-04T05:17:17.500Z,70.90
2019-02-04T05:19:43.684Z,76.57
2019-02-04T05:22:10.513Z,76.00
2019-02-04T05:24:36.669Z,81.40
2019-02-04T05:27:02.857Z,65.73
2019-02-04T05:29:29.128Z,73.07
2019-02-04T05:31:55.325Z,73.07
2019-02-04T05:34:21.609Z,80.60
2019-02-04T05:36:47.776Z,84.03
2019-02-04T05:39:13.916Z,67.30
2019-02-04T05:41:42.824Z,126.53
2019-02-04T05:44:08.337Z,70.87
2019-02-04T05:46:34.526Z,52.17
2019-02-04T05:49:00.715Z,50.30
2019-02-04T05:51:26.770Z,51.80
2019-02-04T05:53:52.960Z,39.47
2019-02-04T05:56:19.035Z,43.03
2019-02-04T05:58:45.728Z,42.57
2019-02-04T06:01:11.934Z,43.03
2019-02-04T06:03:38.087Z,52.63
2019-02-04T06:06:04.254Z,65.77
2019-02-04T06:08:30.548Z,57.90
2019-02-04T06:10:56.711Z,87.50
2019-02-04T06:13:22.970Z,73.63
2019-02-04T06:15:49.471Z,66.30
2019-02-04T06:18:16.124Z,64.20
2019-02-04T06:20:42.505Z,68.87
2019-02-04T06:23:08.823Z,63.87
2019-02-04T06:25:34.922Z,71.80
2019-02-04T06:28:00.992Z,77.07
2019-02-04T06:30:27.169Z,71.73
2019-02-04T06:32:53.236Z,63.37
2019-02-04T06:35:19.319Z,67.82
2019-02-04T06:37:46.866Z,77.93
2019-02-04T06:40:14.952Z,76.17
2019-02-04T06:42:40.899Z,72.87
2019-02-04T06:45:10.279Z,77.43
2019-02-04T06:47:36.437Z,89.80
2019-02-04T06:50:05.314Z,88.23
2019-02-04T06:52:31.479Z,97.43
2019-02-04T06:54:58.043Z,114.47
2019-02-04T06:57:24.204Z,98.73
2019-02-04T06:59:50.263Z,97.10
2019-02-04T07:02:16.418Z,113.30
2019-02-04T07:04:42.570Z,159.05
2019-02-04T07:07:08.743Z,210.40
2019-02-04T07:09:34.810Z,76.12
2019-02-04T07:12:00.874Z,47.95
2019-02-04T07:14:27.419Z,52.83
2019-02-04T07:16:53.691Z,72.65
2019-02-04T07:19:24.325Z,73.28
2019-02-04T07:21:47.837Z,91.75
2019-02-04T07:24:13.886Z,101.15
2019-02-04T07:26:40.052Z,95.77
2019-02-04T07:29:06.126Z,90.22
2019-02-04T07:31:32.303Z,94.32
2019-02-04T07:33:58.858Z,89.32
2019-02-04T07:36:25.223Z,71.12
2019-02-04T07:38:51.297Z,59.58
2019-02-04T07:41:17.463Z,77.32
2019-02-04T07:43:43.608Z,66.70
2019-02-04T07:46:09.680Z,73.25
2019-02-04T07:48:35.733Z,65.37
2019-02-04T07:51:01.996Z,68.42
2019-02-04T07:53:28.640Z,66.17
2019-02-04T07:55:54.816Z,69.07
2019-02-04T07:58:20.879Z,67.32
2019-02-04T08:00:46.853Z,71.60
2019-02-04T08:03:15.025Z,64.00
2019-02-04T08:05:41.002Z,71.42
2019-02-04T08:08:07.067Z,66.25
2019-02-04T08:10:33.123Z,56.02
2019-02-04T08:13:01.903Z,54.60
2019-02-04T08:15:30.759Z,54.83
2019-02-04T08:17:56.920Z,51.98
2019-02-04T08:20:23.282Z,54.25
2019-02-04T08:22:49.341Z,55.45
2019-02-04T08:25:16.119Z,49.20
2019-02-04T08:27:42.280Z,51.08
2019-02-04T08:30:21.418Z,48.50
2019-02-04T08:32:47.473Z,43.73
2019-02-04T08:35:13.656Z,47.65
2019-02-04T08:37:39.918Z,51.55
2019-02-04T08:40:09.694Z,49.40
2019-02-04T08:42:35.751Z,53.65
2019-02-04T08:45:01.936Z,49.77
2019-02-04T08:47:28.604Z,50.20
2019-02-04T08:49:58.553Z,50.23
2019-02-04T08:52:22.644Z,50.80
2019-02-04T08:54:48.904Z,48.30
2019-02-04T08:57:14.998Z,53.95
2019-02-04T08:59:41.068Z,54.42
2019-02-04T09:02:07.338Z,53.17
2019-02-04T09:04:33.607Z,58.20
2019-02-04T09:06:59.665Z,53.52
2019-02-04T09:09:26.116Z,56.28
2019-02-04T09:11:52.178Z,59.55
2019-02-04T09:14:18.335Z,64.12
2019-02-04T09:16:44.616Z,52.05
2019-02-04T09:19:10.785Z,57.43
2019-02-04T09:21:36.949Z,62.75
2019-02-04T09:24:04.081Z,58.15
2019-02-04T09:26:30.246Z,66.57
2019-02-04T09:28:56.888Z,67.22
2019-02-04T09:31:23.281Z,63.75
2019-02-04T09:33:49.557Z,84.50
2019-02-04T09:36:15.804Z,93.65
2019-02-04T09:38:42.131Z,101.18
2019-02-04T09:41:08.186Z,99.07
2019-02-04T09:43:34.262Z,98.97
2019-02-04T09:46:00.468Z,101.62
2019-02-04T09:48:26.638Z,79.58
2019-02-04T09:50:52.897Z,83.20
2019-02-04T09:53:19.101Z,85.53
2019-02-04T09:55:45.147Z,104.17
2019-02-04T09:58:11.423Z,94.47
2019-02-04T10:00:37.700Z,100.00
2019-02-04T10:03:05.182Z,75.47
2019-02-04T10:05:31.346Z,67.45
2019-02-04T10:07:58.017Z,76.53
2019-02-04T10:10:26.427Z,75.60
2019-02-04T10:12:52.790Z,71.75
2019-02-04T10:15:26.913Z,63.65
2019-02-04T10:17:52.999Z,64.85
2019-02-04T10:20:19.116Z,68.22
2019-02-04T10:22:45.396Z,68.07
2019-02-04T10:25:21.144Z,67.22
2019-02-04T10:27:47.389Z,65.37
2019-02-04T10:30:22.111Z,75.55
2019-02-04T10:32:48.180Z,67.90
2019-02-04T10:35:17.217Z,66.30
2019-02-04T10:37:43.236Z,53.60
2019-02-04T10:40:15.400Z,57.13
2019-02-04T10:42:41.604Z,56.42
2019-02-04T10:45:10.651Z,53.00
2019-02-04T10:47:36.716Z,54.10
2019-02-04T10:50:09.651Z,45.35
2019-02-04T10:52:35.796Z,51.45
2019-02-04T10:55:03.169Z,51.35
2019-02-04T10:57:40.028Z,47.08
2019-02-04T10:59:57.445Z,52.78
2019-02-04T11:02:23.649Z,48.80
2019-02-04T11:04:49.803Z,47.33
2019-02-04T11:07:16.069Z,52.25
2019-02-04T11:09:42.310Z,46.05
2019-02-04T11:12:08.282Z,42.90
2019-02-04T11:14:34.458Z,44.18
2019-02-04T11:17:00.746Z,37.73
2019-02-04T11:19:26.794Z,39.75
2019-02-04T11:21:53.090Z,33.20
2019-02-04T11:24:19.320Z,29.20
2019-02-04T11:26:45.410Z,41.45
2019-02-04T11:29:11.679Z,40.70
2019-02-04T11:31:38.361Z,34.13
2019-02-04T11:34:04.625Z,33.95
2019-02-04T11:36:30.851Z,37.25
2019-02-04T11:38:57.131Z,42.85
2019-02-04T11:41:23.536Z,39.85
2019-02-04T11:43:50.284Z,40.00
2019-02-04T11:46:16.549Z,43.40
2019-02-04T11:48:42.787Z,47.48
2019-02-04T11:51:10.167Z,43.50
2019-02-04T11:53:36.512Z,45.00
2019-02-04T11:56:02.586Z,37.42
2019-02-04T11:58:28.851Z,33.10
2019-02-04T12:00:54.916Z,27.65
2019-02-04T12:03:20.976Z,31.97
2019-02-04T12:05:47.145Z,28.77
2019-02-04T12:08:13.296Z,31.30
2019-02-04T12:10:46.192Z,32.83
2019-02-04T12:13:12.444Z,35.90
2019-02-04T12:15:38.713Z,31.20
2019-02-04T12:18:04.965Z,39.58
2019-02-04T12:20:31.237Z,34.88
2019-02-04T12:22:57.393Z,35.10
2019-02-04T12:25:27.414Z,33.30
2019-02-04T12:27:54.788Z,41.80
2019-02-04T12:30:23.991Z,35.58
2019-02-04T12:32:50.272Z,38.05
2019-02-04T12:35:16.329Z,31.62
2019-02-04T12:37:42.611Z,34.60
2019-02-04T12:40:13.893Z,31.37
2019-02-04T12:42:40.170Z,32.25
2019-02-04T12:45:10.351Z,30.97
2019-02-04T12:47:36.623Z,35.40
2019-02-04T12:50:05.803Z,32.10
2019-02-04T12:52:32.080Z,23.10
2019-02-04T12:54:58.232Z,31.07
2019-02-04T12:57:24.500Z,24.23
2019-02-04T12:59:50.659Z,26.42
2019-02-04T13:02:17.229Z,39.23
2019-02-04T13:04:43.485Z,42.48
2019-02-04T13:07:09.559Z,34.90
2019-02-04T13:09:35.826Z,38.70
2019-02-04T13:12:02.079Z,37.42
2019-02-04T13:14:28.252Z,29.55
2019-02-04T13:16:54.322Z,33.98
2019-02-04T13:19:20.603Z,29.12
2019-02-04T13:21:47.187Z,29.98
2019-02-04T13:24:13.248Z,34.40
2019-02-04T13:26:39.520Z,28.67
2019-02-04T13:29:05.720Z,32.48
2019-02-04T13:31:31.904Z,26.57
2019-02-04T13:33:58.196Z,30.08
2019-02-04T13:36:24.475Z,30.17
2019-02-04T13:38:50.631Z,39.60
2019-02-04T13:41:17.268Z,37.73
2019-02-04T13:43:43.581Z,27.20
2019-02-04T13:46:09.830Z,33.95
2019-02-04T13:48:36.155Z,33.88
2019-02-04T13:51:02.426Z,37.00
2019-02-04T13:53:28.688Z,36.50
2019-02-04T13:55:54.751Z,40.25
2019-02-04T13:58:21.761Z,38.63
2019-02-04T14:00:48.250Z,41.08
2019-02-04T14:03:17.450Z,38.78
2019-02-04T14:05:42.688Z,43.80
2019-02-04T14:08:08.862Z,38.90
2019-02-04T14:10:37.581Z,34.27
2019-02-04T14:13:03.972Z,91.17
2019-02-04T14:15:30.239Z,102.75
2019-02-04T14:17:56.699Z,81.57
2019-02-04T14:20:24.390Z,50.43
2019-02-04T14:22:53.320Z,57.80
2019-02-04T14:25:18.924Z,44.85
2019-02-04T14:27:45.121Z,48.17
2019-02-04T14:30:26.964Z,40.98
2019-02-04T14:32:53.256Z,42.67
2019-02-04T14:35:19.417Z,43.10
2019-02-04T14:37:45.517Z,44.23
2019-02-04T14:40:18.748Z,38.10
2019-02-04T14:42:41.523Z,34.55
2019-02-04T14:45:20.947Z,51.42
2019-02-04T14:48:03.148Z,40.55
2019-02-04T14:50:37.653Z,50.95
2019-02-04T14:53:31.337Z,58.05
2019-02-04T14:56:10.349Z,68.85
2019-02-04T14:58:58.174Z,64.58
2019-02-04T15:02:18.637Z,73.90
2019-02-04T15:05:25.050Z,94.97
2019-02-04T15:08:18.761Z,98.27
2019-02-04T15:10:51.844Z,103.15
2019-02-04T15:13:51.845Z,120.70
2019-02-04T15:16:27.780Z,82.60
2019-02-04T15:19:20.479Z,92.30
2019-02-04T15:22:33.113Z,87.53
2019-02-04T15:25:27.465Z,107.63
2019-02-04T15:28:15.370Z,112.30
2019-02-04T15:31:18.607Z,121.10
2019-02-04T15:33:54.277Z,125.12
2019-02-04T15:36:47.985Z,122.72
2019-02-04T15:42:31.631Z,128.40
2019-02-04T15:44:58.607Z,126.58
2019-02-04T15:47:28.552Z,128.40
2019-02-04T15:50:15.239Z,111.15
2019-02-04T15:52:45.550Z,133.18
2019-02-04T15:55:13.038Z,121.17
2019-02-04T15:57:39.314Z,127.72
2019-02-04T16:00:09.081Z,228.50
2019-02-04T16:02:35.370Z,220.27
2019-02-04T16:05:01.530Z,267.82
2019-02-04T16:07:27.849Z,306.43
2019-02-04T16:09:54.624Z,310.38
2019-02-04T16:12:20.956Z,245.85
2019-02-04T16:14:47.259Z,270.97
2019-02-04T16:17:13.534Z,295.42
2019-02-04T16:19:39.911Z,352.52
2019-02-04T16:22:06.185Z,233.78
2019-02-04T16:24:32.485Z,265.92
2019-02-04T16:26:58.806Z,417.68
2019-02-04T16:29:25.580Z,372.60
2019-02-04T16:31:51.863Z,411.40
2019-02-04T16:34:18.086Z,359.60
2019-02-04T16:36:44.370Z,308.68
2019-02-04T16:39:10.699Z,277.27
2019-02-04T16:41:36.979Z,294.75
2019-02-04T16:44:03.477Z,315.75
2019-02-04T16:46:29.759Z,347.20
2019-02-04T16:48:56.431Z,324.40
2019-02-04T16:51:22.734Z,337.93
2019-02-04T16:53:48.944Z,324.70
2019-02-04T16:56:15.135Z,342.37
2019-02-04T16:58:41.400Z,286.48
2019-02-04T17:01:07.683Z,281.73
2019-02-04T17:03:33.852Z,263.57
2019-02-04T17:06:00.017Z,219.57
2019-02-04T17:08:26.580Z,213.60
2019-02-04T17:10:52.962Z,233.20
2019-02-04T17:13:19.233Z,185.05
2019-02-04T17:15:45.516Z,142.68
2019-02-04T17:18:13.597Z,91.90
2019-02-04T17:20:39.792Z,99.05
2019-02-04T17:23:05.970Z,89.72
2019-02-04T17:25:32.253Z,96.15
2019-02-04T17:28:00.781Z,108.83
2019-02-04T17:30:27.071Z,93.27
2019-02-04T17:32:53.376Z,88.62
2019-02-04T17:35:19.590Z,103.07
2019-02-04T17:37:45.873Z,128.45
2019-02-04T17:40:17.645Z,109.87
2019-02-04T17:42:43.954Z,148.55
2019-02-04T17:45:12.531Z,153.65
2019-02-04T17:47:38.825Z,221.13
2019-02-04T17:50:28.453Z,259.67
2019-02-04T17:52:54.889Z,270.05
2019-02-04T17:55:48.890Z,272.70
2019-02-04T17:58:15.171Z,280.20
2019-02-04T18:00:45.748Z,263.37
2019-02-04T18:03:11.956Z,262.50
2019-02-04T18:05:38.169Z,234.15
2019-02-04T18:08:06.560Z,218.00
2019-02-04T18:10:32.843Z,220.52
2019-02-04T18:12:59.116Z,265.90
2019-02-04T18:15:25.383Z,344.52
2019-02-04T18:17:51.678Z,381.38
2019-02-04T18:20:17.879Z,370.10
2019-02-04T18:22:44.158Z,393.02
2019-02-04T18:25:13.144Z,445.08
2019-02-04T18:27:39.430Z,405.22
2019-02-04T18:30:09.013Z,401.18
2019-02-04T18:32:35.296Z,404.27
2019-02-04T18:35:01.401Z,344.57
2019-02-04T18:37:28.084Z,212.23
2019-02-04T18:39:54.364Z,167.37
2019-02-04T18:42:20.637Z,182.07
2019-02-04T18:44:47.380Z,147.32
2019-02-04T18:47:13.566Z,114.25
2019-02-04T18:49:39.862Z,120.90
2019-02-04T18:52:06.155Z,227.07
2019-02-04T18:54:32.730Z,217.28
2019-02-04T18:56:58.924Z,117.05
2019-02-04T18:59:25.196Z,148.50
2019-02-04T19:01:51.570Z,190.73
2019-02-04T19:04:17.848Z,172.65
2019-02-04T19:06:47.753Z,158.37
2019-02-04T19:09:12.650Z,205.70
2019-02-04T19:11:38.917Z,207.57
2019-02-04T19:14:05.212Z,154.72
2019-02-04T19:16:31.478Z,89.22
2019-02-04T19:18:57.735Z,130.00
2019-02-04T19:21:24.321Z,89.00
2019-02-04T19:23:50.610Z,84.25
2019-02-04T19:26:16.783Z,70.10
2019-02-04T19:28:43.071Z,67.72
2019-02-04T19:31:09.847Z,86.15
2019-02-04T19:33:36.431Z,107.47
2019-02-04T19:36:02.834Z,108.75
2019-02-04T19:38:29.286Z,104.92
2019-02-04T19:40:55.956Z,92.88
2019-02-04T19:43:22.021Z,81.35
2019-02-04T19:45:48.323Z,89.13
2019-02-04T19:48:14.603Z,98.62
2019-02-04T19:50:40.759Z,200.35
2019-02-04T19:53:07.137Z,134.10
2019-02-04T19:55:33.413Z,117.37
2019-02-04T19:57:59.678Z,129.68
2019-02-04T20:00:26.400Z,113.88
2019-02-04T20:02:52.788Z,120.25
2019-02-04T20:05:24.652Z,165.18
2019-02-04T20:07:50.919Z,154.23
2019-02-04T20:10:18.512Z,130.05
2019-02-04T20:12:44.791Z,146.68
2019-02-04T20:15:19.767Z,138.15
2019-02-04T20:17:45.955Z,143.13
2019-02-04T20:20:12.247Z,144.07
2019-02-04T20:22:38.625Z,138.20
2019-02-04T20:25:28.286Z,142.70
2019-02-04T20:27:54.592Z,137.65
2019-02-04T20:30:26.738Z,132.90
2019-02-04T20:32:53.005Z,136.30
2019-02-04T20:35:19.308Z,147.40
2019-02-04T20:37:45.484Z,142.45
2019-02-04T20:40:20.171Z,135.85
2019-02-04T20:42:46.350Z,130.72
2019-02-04T20:45:13.615Z,119.50
2019-02-04T20:47:40.518Z,127.00
2019-02-04T20:50:10.427Z,148.72
2019-02-04T20:52:36.708Z,193.37
2019-02-04T20:55:04.626Z,199.85
2019-02-04T20:57:30.907Z,198.05
2019-02-04T20:59:57.088Z,165.28
2019-02-04T21:02:23.372Z,156.55
2019-02-04T21:04:49.942Z,157.18
2019-02-04T21:07:16.019Z,133.20
2019-02-04T21:09:42.297Z,150.10
2019-02-04T21:12:08.493Z,125.87
2019-02-04T21:14:34.772Z,128.55
2019-02-04T21:17:01.023Z,118.47
2019-02-04T21:19:27.112Z,126.42
2019-02-04T21:21:53.282Z,132.37
2019-02-04T21:24:19.846Z,132.82
2019-02-04T21:26:46.301Z,129.70
2019-02-04T21:29:12.568Z,123.28
2019-02-04T21:31:38.718Z,126.62
2019-02-04T21:34:05.669Z,133.57
2019-02-04T21:36:31.915Z,159.25
2019-02-04T21:38:58.092Z,119.90
2019-02-04T21:41:24.253Z,114.37
2019-02-04T21:43:51.025Z,121.35
2019-02-04T21:46:17.189Z,89.50
2019-02-04T21:48:43.354Z,104.85
2019-02-04T21:51:09.423Z,86.95
2019-02-04T21:53:35.588Z,85.83
2019-02-04T21:56:01.866Z,74.00
2019-02-04T21:58:28.125Z,71.17
2019-02-04T22:00:54.382Z,70.20
2019-02-04T22:03:20.427Z,79.55
2019-02-04T22:05:46.586Z,68.60
2019-02-04T22:08:12.848Z,67.95
2019-02-04T22:10:39.323Z,69.65
2019-02-04T22:13:05.368Z,68.70
2019-02-04T22:15:31.837Z,68.95
2019-02-04T22:17:57.884Z,74.60
2019-02-04T22:20:24.058Z,74.20
2019-02-04T22:22:50.095Z,79.47
2019-02-04T22:25:21.141Z,73.57
2019-02-04T22:27:47.302Z,73.30
2019-02-04T22:30:18.309Z,69.83
2019-02-04T22:32:44.471Z,77.60
2019-02-04T22:35:10.614Z,87.57
2019-02-04T22:37:36.779Z,106.15
2019-02-04T22:40:06.670Z,104.25
2019-02-04T22:42:33.157Z,81.87
2019-02-04T22:44:59.319Z,68.22
2019-02-04T22:47:25.380Z,73.30
2019-02-04T22:49:51.545Z,63.28
2019-02-04T22:52:17.612Z,66.20
2019-02-04T22:54:43.660Z,66.10
2019-02-04T22:57:09.817Z,72.95
2019-02-04T22:59:35.868Z,70.70
2019-02-04T23:02:02.127Z,73.33
2019-02-04T23:04:28.188Z,68.70
2019-02-04T23:06:54.236Z,67.35
2019-02-04T23:09:20.400Z,64.25
2019-02-04T23:11:46.550Z,70.37
2019-02-04T23:14:12.591Z,65.30
2019-02-04T23:16:38.753Z,56.85
2019-02-04T23:19:04.810Z,58.13
2019-02-04T23:21:30.978Z,61.68
2019-02-04T23:23:57.134Z,62.62
2019-02-04T23:26:23.208Z,65.47
2019-02-04T23:28:49.297Z,68.37
2019-02-04T23:31:15.344Z,61.23
2019-02-04T23:33:41.725Z,68.75
2019-02-04T23:36:07.780Z,77.27
2019-02-04T23:38:33.975Z,74.07
2019-02-04T23:41:00.137Z,70.52
2019-02-04T23:43:26.397Z,67.67
2019-02-04T23:45:52.453Z,66.97
2019-02-04T23:48:18.752Z,61.40
2019-02-04T23:50:44.912Z,74.82
2019-02-04T23:53:11.079Z,65.42
2019-02-04T23:55:37.138Z,66.65
2019-02-04T23:58:03.301Z,77.47
